Time,TemperatureF,DewpointF,PressureIn,WindDirection,WindDirectionDegrees,WindSpeedMPH,WindSpeedGustMPH,Humidity,HourlyPrecipIn,Conditions,Clouds,dailyrainin,SolarRadiationWatts/m^2,SoftwareType,DateUTC
2013-07-27 00:01:00,54.3,53.2,30.30,SSW,205,2.3,2.3,96,0.00,RA,,0.00,0.0,WeatherDisplay:10.37,2013-07-27 08:01:00,
2013-07-27 00:06:00,54.2,53.1,30.30,SSW,211,1.2,0.0,96,0.00,RA,,0.00,0.0,WeatherDisplay:10.37,2013-07-27 08:06:00,
2013-07-27 00:11:00,54.2,53.1,30.30,SSW,202,4.6,4.6,96,0.00,CLR,,0.00,0.0,WeatherDisplay:10.37,2013-07-27 08:11:00,
2013-07-27 00:16:00,54.2,53.1,30.30,SSW,202,3.5,0.0,96,0.00,CLR,,0.00,0.0,WeatherDisplay:10.37,2013-07-27 08:16:00,
2013-07-27 00:21:00,54.1,53.0,30.30,SW,232,0.0,0.0,96,0.00,CLR,,0.00,0.0,WeatherDisplay:10.37,2013-07-27 08:21:00,
2013-07-27 00:26:00,54.1,53.0,30.31,WNW,285,1.2,0.0,96,0.00,CLR,,0.00,0.0,WeatherDisplay:10.37,2013-07-27 08:26:00,
2013-07-27 00:31:00,54.1,53.0,30.31,SSE,154,4.0,4.0,96,0.00,CLR,,0.00,0.0,WeatherDisplay:10.37,2013-07-27 08:31:00,
2013-07-27 00:36:00,54.1,53.0,30.31,South,181,1.2,1.2,96,0.00,CLR,,0.00,0.0,WeatherDisplay:10.37,2013-07-27 08:36:00,
2013-07-27 00:41:00,54.1,53.0,30.31,South,181,1.2,0.0,96,0.00,CLR,,0.00,0.0,WeatherDisplay:10.37,2013-07-27 08:41:00,
2013-07-27 00:46:00,54.0,52.9,30.31,South,181,2.3,0.0,96,0.00,CLR,,0.00,0.0,WeatherDisplay:10.37,2013-07-27 08:46:00,
2013-07-27 00:51:00,53.9,52.8,30.31,SSW,196,2.3,2.3,96,0.00,CLR,,0.00,0.0,WeatherDisplay:10.37,2013-07-27 08:51:00,
2013-07-27 00:56:00,53.9,52.8,30.31,SSW,192,1.2,1.2,96,0.00,CLR,,0.00,0.0,WeatherDisplay:10.37,2013-07-27 08:56:00,
2013-07-27 01:01:00,53.9,52.8,30.31,SSW,196,2.3,2.3,96,0.00,FEW,,0.00,0.0,WeatherDisplay:10.37,2013-07-27 09:01:00,
2013-07-27 01:06:00,53.9,52.8,30.31,SSW,200,2.3,2.3,96,0.00,FEW,,0.00,0.0,WeatherDisplay:10.37,2013-07-27 09:06:00,
2013-07-27 01:11:00,53.9,52.8,30.31,South,169,2.3,2.3,96,0.00,FEW,,0.00,0.0,WeatherDisplay:10.37,2013-07-27 09:11:00,
2013-07-27 01:16:00,53.9,52.8,30.31,South,173,3.5,3.5,96,0.00,FEW,,0.00,0.0,WeatherDisplay:10.37,2013-07-27 09:16:00,
2013-07-27 01:21:00,53.9,53.1,30.31,SSW,196,1.2,1.2,97,0.00,FEW,,0.00,0.0,WeatherDisplay:10.37,2013-07-27 09:21:00,
2013-07-27 01:27:00,54.0,53.2,30.31,South,182,3.5,3.5,97,0.00,FEW,,0.00,0.0,WeatherDisplay:10.37,2013-07-27 09:27:00,
2013-07-27 01:32:00,54.0,53.2,30.31,SW,221,3.5,3.5,97,0.00,FEW,,0.00,0.0,WeatherDisplay:10.37,2013-07-27 09:32:00,
2013-07-27 01:37:00,54.0,53.2,30.31,SW,228,2.3,0.0,97,0.00,FEW,,0.00,0.0,WeatherDisplay:10.37,2013-07-27 09:37:00,
2013-07-27 01:42:00,54.0,53.2,30.31,South,184,2.3,2.3,97,0.00,FEW,,0.00,0.0,WeatherDisplay:10.37,2013-07-27 09:42:00,
2013-07-27 01:47:00,54.0,53.2,30.31,South,177,3.5,3.5,97,0.00,FEW,,0.00,0.0,WeatherDisplay:10.37,2013-07-27 09:47:00,
2013-07-27 01:52:00,54.1,53.3,30.32,South,172,3.5,3.5,97,0.00,FEW,,0.00,0.0,WeatherDisplay:10.37,2013-07-27 09:52:00,
2013-07-27 01:57:00,54.1,53.3,30.32,SSE,161,3.5,3.5,97,0.00,FEW,,0.00,0.0,WeatherDisplay:10.37,2013-07-27 09:57:00,
2013-07-27 02:02:00,54.1,53.3,30.31,South,175,2.3,2.3,97,0.00,CLR,,0.00,0.0,WeatherDisplay:10.37,2013-07-27 10:02:00,
2013-07-27 02:07:00,54.2,53.4,30.31,WSW,251,3.5,3.5,97,0.00,CLR,,0.00,0.0,WeatherDisplay:10.37,2013-07-27 10:07:00,
2013-07-27 02:12:00,54.2,53.4,30.31,WSW,257,1.2,1.2,97,0.00,CLR,,0.00,0.0,WeatherDisplay:10.37,2013-07-27 10:12:00,
2013-07-27 02:17:00,54.1,53.3,30.31,SSW,196,3.5,3.5,97,0.00,CLR,,0.00,0.0,WeatherDisplay:10.37,2013-07-27 10:17:00,
2013-07-27 02:22:00,54.1,53.3,30.31,SW,229,3.5,0.0,97,0.00,CLR,,0.00,0.0,WeatherDisplay:10.37,2013-07-27 10:22:00,
2013-07-27 02:27:00,54.1,53.3,30.31,WSW,256,2.3,2.3,97,0.00,CLR,,0.00,0.0,WeatherDisplay:10.37,2013-07-27 10:27:00,
2013-07-27 02:32:00,54.1,53.3,30.31,SW,215,3.5,3.5,97,0.00,FEW,,0.00,0.0,WeatherDisplay:10.37,2013-07-27 10:32:00,
2013-07-27 02:37:00,54.0,53.2,30.32,SSW,198,3.5,3.5,97,0.00,FEW,,0.00,0.0,WeatherDisplay:10.37,2013-07-27 10:37:00,
2013-07-27 02:42:00,54.1,53.3,30.31,South,180,3.5,3.5,97,0.00,FEW,,0.00,0.0,WeatherDisplay:10.37,2013-07-27 10:42:00,
2013-07-27 02:47:00,54.1,53.3,30.31,SE,146,4.6,4.6,97,0.00,FEW,,0.00,0.0,WeatherDisplay:10.37,2013-07-27 10:47:00,
2013-07-27 02:52:00,54.1,53.3,30.31,SE,146,2.3,2.3,97,0.00,FEW,,0.00,0.0,WeatherDisplay:10.37,2013-07-27 10:52:00,
2013-07-27 02:57:00,54.1,53.3,30.31,South,186,2.3,2.3,97,0.00,FEW,,0.00,0.0,WeatherDisplay:10.37,2013-07-27 10:57:00,
2013-07-27 03:02:00,54.1,53.3,30.31,SSW,199,4.6,4.6,97,0.00,CLR,,0.00,0.0,WeatherDisplay:10.37,2013-07-27 11:02:00,
2013-07-27 03:07:00,54.1,53.3,30.32,South,191,4.6,4.6,97,0.00,CLR,,0.00,0.0,WeatherDisplay:10.37,2013-07-27 11:07:00,
2013-07-27 03:12:00,54.2,53.4,30.32,SW,217,1.2,1.2,97,0.00,CLR,,0.00,0.0,WeatherDisplay:10.37,2013-07-27 11:12:00,
2013-07-27 03:17:00,54.2,53.4,30.32,WSW,237,4.0,4.0,97,0.00,CLR,,0.00,0.0,WeatherDisplay:10.37,2013-07-27 11:17:00,
2013-07-27 03:22:00,54.2,53.4,30.32,SE,144,3.5,3.5,97,0.00,CLR,,0.00,0.0,WeatherDisplay:10.37,2013-07-27 11:22:00,
2013-07-27 03:27:00,54.2,53.4,30.32,SSE,149,2.3,2.3,97,0.00,CLR,,0.00,0.0,WeatherDisplay:10.37,2013-07-27 11:27:00,
2013-07-27 03:32:00,54.3,53.5,30.32,South,184,2.3,2.3,97,0.00,CLR,,0.00,0.0,WeatherDisplay:10.37,2013-07-27 11:32:00,
2013-07-27 03:37:00,54.4,53.6,30.32,South,173,3.5,3.5,97,0.00,CLR,,0.00,0.0,WeatherDisplay:10.37,2013-07-27 11:37:00,
2013-07-27 03:42:00,54.4,53.6,30.32,South,173,1.2,0.0,97,0.00,CLR,,0.00,0.0,WeatherDisplay:10.37,2013-07-27 11:42:00,
2013-07-27 03:47:00,54.4,53.6,30.32,South,186,2.3,2.3,97,0.00,CLR,,0.00,0.0,WeatherDisplay:10.37,2013-07-27 11:47:00,
2013-07-27 03:52:00,54.4,53.6,30.32,South,189,2.3,2.3,97,0.00,CLR,,0.00,0.0,WeatherDisplay:10.37,2013-07-27 11:52:00,
2013-07-27 03:57:00,54.3,53.5,30.32,SW,229,1.2,0.0,97,0.00,CLR,,0.00,0.0,WeatherDisplay:10.37,2013-07-27 11:57:00,
2013-07-27 04:02:00,54.2,53.4,30.32,South,182,2.3,2.3,97,0.00,CLR,,0.00,0.0,WeatherDisplay:10.37,2013-07-27 12:02:00,
2013-07-27 04:07:00,54.2,53.4,30.32,South,180,2.3,2.3,97,0.00,CLR,,0.00,0.0,WeatherDisplay:10.37,2013-07-27 12:07:00,
2013-07-27 04:12:00,54.1,53.3,30.32,SSW,198,3.5,3.5,97,0.00,CLR,,0.00,0.0,WeatherDisplay:10.37,2013-07-27 12:12:00,
2013-07-27 04:17:00,54.0,53.2,30.32,SSW,193,2.3,0.0,97,0.00,CLR,,0.00,0.0,WeatherDisplay:10.37,2013-07-27 12:17:00,
2013-07-27 04:22:00,54.0,53.2,30.32,SW,217,2.3,2.3,97,0.00,CLR,,0.00,0.0,WeatherDisplay:10.37,2013-07-27 12:22:00,
2013-07-27 04:27:00,54.1,53.3,30.32,West,274,3.5,3.5,97,0.00,CLR,,0.00,0.0,WeatherDisplay:10.37,2013-07-27 12:27:00,
2013-07-27 04:32:00,54.1,53.3,30.32,SW,235,1.2,1.2,97,0.00,CLR,,0.00,0.0,WeatherDisplay:10.37,2013-07-27 12:32:00,
2013-07-27 04:37:00,54.0,53.2,30.32,SSW,207,1.2,0.0,97,0.00,CLR,,0.00,0.0,WeatherDisplay:10.37,2013-07-27 12:37:00,
2013-07-27 04:42:00,54.0,53.2,30.32,South,170,3.5,3.5,97,0.00,CLR,,0.00,0.0,WeatherDisplay:10.37,2013-07-27 12:42:00,
2013-07-27 04:47:00,53.9,53.1,30.32,SW,227,2.3,2.3,97,0.00,CLR,,0.00,0.0,WeatherDisplay:10.37,2013-07-27 12:47:00,
2013-07-27 04:52:00,53.9,53.1,30.32,SSW,194,2.0,2.0,97,0.00,CLR,,0.00,0.0,WeatherDisplay:10.37,2013-07-27 12:52:00,
2013-07-27 04:57:00,53.9,53.1,30.32,SW,225,2.3,2.3,97,0.00,CLR,,0.00,0.0,WeatherDisplay:10.37,2013-07-27 12:57:00,
2013-07-27 05:02:00,53.9,53.1,30.32,SW,218,0.0,0.0,97,0.00,CLR,,0.00,0.0,WeatherDisplay:10.37,2013-07-27 13:02:00,
2013-07-27 05:07:00,53.9,53.1,30.32,SSW,199,2.3,2.3,97,0.00,CLR,,0.00,0.0,WeatherDisplay:10.37,2013-07-27 13:07:00,
2013-07-27 05:12:00,53.8,53.0,30.33,WSW,239,0.0,0.0,97,0.00,CLR,,0.00,0.0,WeatherDisplay:10.37,2013-07-27 13:12:00,
2013-07-27 05:17:00,53.7,52.9,30.33,WSW,239,0.0,0.0,97,0.00,CLR,,0.00,0.0,WeatherDisplay:10.37,2013-07-27 13:17:00,
2013-07-27 05:22:00,53.7,52.9,30.33,SSW,196,3.0,3.0,97,0.00,CLR,,0.00,0.0,WeatherDisplay:10.37,2013-07-27 13:22:00,
2013-07-27 05:27:00,53.6,52.8,30.33,SW,223,0.0,0.0,97,0.00,CLR,,0.00,0.0,WeatherDisplay:10.37,2013-07-27 13:27:00,
2013-07-27 05:32:00,53.6,52.8,30.33,SSW,194,0.0,0.0,97,0.00,CLR,,0.00,5.0,WeatherDisplay:10.37,2013-07-27 13:32:00,
2013-07-27 05:37:00,53.6,52.8,30.33,West,270,1.2,1.2,97,0.00,CLR,,0.00,5.0,WeatherDisplay:10.37,2013-07-27 13:37:00,
2013-07-27 05:42:00,53.6,52.8,30.33,South,179,2.0,2.0,97,0.00,CLR,,0.00,7.0,WeatherDisplay:10.37,2013-07-27 13:42:00,
2013-07-27 05:47:00,53.5,52.7,30.33,WNW,293,1.2,1.2,97,0.00,CLR,,0.00,9.0,WeatherDisplay:10.37,2013-07-27 13:47:00,
2013-07-27 05:52:00,53.5,52.7,30.33,WNW,293,1.2,1.2,97,0.00,CLR,,0.00,11.0,WeatherDisplay:10.37,2013-07-27 13:52:00,
2013-07-27 05:57:00,53.5,52.7,30.33,SSW,207,2.3,2.3,97,0.00,CLR,,0.00,14.0,WeatherDisplay:10.37,2013-07-27 13:57:00,
2013-07-27 06:02:00,53.6,52.8,30.33,SSW,209,0.0,0.0,97,0.00,CLR,,0.00,14.0,WeatherDisplay:10.37,2013-07-27 14:02:00,
2013-07-27 06:07:00,53.6,52.8,30.33,West,277,2.3,2.3,97,0.00,CLR,,0.00,16.0,WeatherDisplay:10.37,2013-07-27 14:07:00,
2013-07-27 06:12:00,53.7,52.9,30.33,WSW,238,1.2,1.2,97,0.00,CLR,,0.00,18.0,WeatherDisplay:10.37,2013-07-27 14:12:00,
2013-07-27 06:17:00,53.9,53.3,30.34,SW,236,2.3,2.3,98,0.00,SCT,,0.00,25.0,WeatherDisplay:10.37,2013-07-27 14:17:00,
2013-07-27 06:22:00,54.0,53.4,30.34,SSE,158,1.2,1.2,98,0.00,SCT,,0.00,26.0,WeatherDisplay:10.37,2013-07-27 14:22:00,
2013-07-27 06:27:00,54.1,53.5,30.34,South,180,0.0,0.0,98,0.00,SCT,,0.00,40.0,WeatherDisplay:10.37,2013-07-27 14:27:00,
2013-07-27 06:32:00,54.2,53.6,30.34,SSW,200,3.5,3.5,98,0.00,SCT,,0.00,26.0,WeatherDisplay:10.37,2013-07-27 14:32:00,
2013-07-27 06:37:00,54.4,53.8,30.34,SSW,196,3.5,3.5,98,0.00,SCT,,0.00,28.0,WeatherDisplay:10.37,2013-07-27 14:37:00,
2013-07-27 06:42:00,54.4,53.8,30.34,SSW,203,0.0,0.0,98,0.00,SCT,,0.00,33.0,WeatherDisplay:10.37,2013-07-27 14:42:00,
2013-07-27 06:47:00,54.4,53.8,30.34,WSW,246,1.0,0.0,98,0.00,BKN,,0.00,33.0,WeatherDisplay:10.37,2013-07-27 14:47:00,
2013-07-27 06:52:00,54.4,53.8,30.34,SSW,195,2.3,2.3,98,0.00,BKN,,0.00,32.0,WeatherDisplay:10.37,2013-07-27 14:52:00,
2013-07-27 06:57:00,54.5,53.9,30.34,South,190,1.2,1.2,98,0.00,BKN,,0.00,58.0,WeatherDisplay:10.37,2013-07-27 14:57:00,
2013-07-27 07:02:00,54.5,53.9,30.34,SW,216,1.0,1.0,98,0.01,RA,,0.01,51.0,WeatherDisplay:10.37,2013-07-27 15:02:00,
2013-07-27 07:07:00,54.5,53.7,30.34,South,188,3.5,3.5,97,0.01,RA,,0.01,46.0,WeatherDisplay:10.37,2013-07-27 15:07:00,
2013-07-27 07:12:00,54.5,53.7,30.34,WSW,254,3.5,3.5,97,0.01,BKN,,0.01,69.0,WeatherDisplay:10.37,2013-07-27 15:12:00,
2013-07-27 07:17:00,54.5,53.7,30.34,West,280,2.3,2.3,97,0.01,BKN,,0.01,84.0,WeatherDisplay:10.37,2013-07-27 15:17:00,
2013-07-27 07:22:00,54.6,53.8,30.34,SSE,168,2.3,2.3,97,0.01,BKN,,0.01,62.0,WeatherDisplay:10.37,2013-07-27 15:22:00,
2013-07-27 07:27:00,54.6,53.8,30.34,WSW,238,2.3,2.3,97,0.01,BKN,,0.01,81.0,WeatherDisplay:10.37,2013-07-27 15:27:00,
2013-07-27 07:32:00,54.6,54.0,30.34,WSW,238,1.2,0.0,98,0.01,BKN,,0.01,76.0,WeatherDisplay:10.37,2013-07-27 15:32:00,
2013-07-27 07:37:00,54.7,54.1,30.34,SSW,195,1.2,0.0,98,0.01,BKN,,0.01,84.0,WeatherDisplay:10.37,2013-07-27 15:37:00,
2013-07-27 07:42:00,54.7,54.1,30.34,West,262,1.2,0.0,98,0.01,BKN,,0.01,100.0,WeatherDisplay:10.37,2013-07-27 15:42:00,
2013-07-27 07:47:00,54.8,54.2,30.34,WSW,242,3.5,3.5,98,0.01,BKN,,0.01,95.0,WeatherDisplay:10.37,2013-07-27 15:47:00,
2013-07-27 07:52:00,54.8,54.2,30.34,West,270,1.2,1.2,98,0.01,BKN,,0.01,107.0,WeatherDisplay:10.37,2013-07-27 15:52:00,
2013-07-27 07:57:00,54.9,54.3,30.35,South,188,2.3,2.3,98,0.01,BKN,,0.01,88.0,WeatherDisplay:10.37,2013-07-27 15:57:00,
2013-07-27 08:02:00,54.9,54.3,30.34,ESE,119,2.3,2.3,98,0.00,OVC,,0.01,100.0,WeatherDisplay:10.37,2013-07-27 16:02:00,
2013-07-27 08:07:00,54.9,54.1,30.35,WSW,248,1.2,1.2,97,0.00,OVC,,0.01,102.0,WeatherDisplay:10.37,2013-07-27 16:07:00,
2013-07-27 08:12:00,54.9,54.1,30.35,West,274,2.3,2.3,97,0.00,OVC,,0.01,98.0,WeatherDisplay:10.37,2013-07-27 16:12:00,
2013-07-27 08:17:00,54.9,54.1,30.35,South,183,3.5,3.5,97,0.00,OVC,,0.01,120.0,WeatherDisplay:10.37,2013-07-27 16:17:00,
2013-07-27 08:22:00,54.8,54.0,30.35,SSW,194,3.5,3.5,97,0.00,OVC,,0.01,128.0,WeatherDisplay:10.37,2013-07-27 16:22:00,
2013-07-27 08:27:00,54.7,53.9,30.35,SW,236,3.5,0.0,97,0.00,OVC,,0.01,116.0,WeatherDisplay:10.37,2013-07-27 16:27:00,
2013-07-27 08:32:00,54.7,53.9,30.35,WNW,288,1.2,1.2,97,0.00,OVC,,0.01,121.0,WeatherDisplay:10.37,2013-07-27 16:32:00,
2013-07-27 08:37:00,54.8,54.0,30.35,SSE,165,3.5,3.5,97,0.00,OVC,,0.01,114.0,WeatherDisplay:10.37,2013-07-27 16:37:00,
2013-07-27 08:42:00,54.8,54.0,30.35,WSW,240,2.3,2.3,97,0.00,OVC,,0.01,128.0,WeatherDisplay:10.37,2013-07-27 16:42:00,
2013-07-27 08:47:00,54.7,53.9,30.35,SW,228,3.5,3.5,97,0.00,OVC,,0.01,132.0,WeatherDisplay:10.37,2013-07-27 16:47:00,
2013-07-27 08:52:00,54.8,54.0,30.35,SW,225,2.3,2.3,97,0.00,OVC,,0.01,151.0,WeatherDisplay:10.37,2013-07-27 16:52:00,
2013-07-27 08:57:00,54.7,53.9,30.35,WSW,239,3.5,3.5,97,0.00,OVC,,0.01,163.0,WeatherDisplay:10.37,2013-07-27 16:57:00,
2013-07-27 09:02:00,54.7,53.9,30.35,WSW,248,3.5,3.5,97,0.00,BKN,,0.01,178.0,WeatherDisplay:10.37,2013-07-27 17:02:00,
2013-07-27 09:07:00,54.8,54.0,30.35,WNW,288,3.5,3.5,97,0.00,BKN,,0.01,169.0,WeatherDisplay:10.37,2013-07-27 17:07:00,
2013-07-27 09:12:00,54.7,53.9,30.35,WSW,253,2.3,2.3,97,0.00,BKN,,0.01,179.0,WeatherDisplay:10.37,2013-07-27 17:12:00,
2013-07-27 09:17:00,54.7,53.9,30.35,SSW,209,2.0,2.0,97,0.00,BKN,,0.01,165.0,WeatherDisplay:10.37,2013-07-27 17:17:00,
2013-07-27 09:22:00,54.6,53.8,30.35,SW,219,3.5,3.5,97,0.00,BKN,,0.01,172.0,WeatherDisplay:10.37,2013-07-27 17:22:00,
2013-07-27 09:27:00,54.7,53.9,30.35,South,169,3.5,3.5,97,0.00,BKN,,0.01,193.0,WeatherDisplay:10.37,2013-07-27 17:27:00,
2013-07-27 09:32:00,54.6,53.8,30.36,SW,234,3.5,3.5,97,0.00,BKN,,0.01,225.0,WeatherDisplay:10.37,2013-07-27 17:32:00,
2013-07-27 09:37:00,54.6,53.5,30.36,SSW,192,3.5,3.5,96,0.00,BKN,,0.01,192.0,WeatherDisplay:10.37,2013-07-27 17:37:00,
2013-07-27 09:42:00,54.6,53.8,30.36,WSW,246,3.0,3.0,97,0.00,BKN,,0.01,185.0,WeatherDisplay:10.37,2013-07-27 17:42:00,
2013-07-27 09:47:00,54.7,53.9,30.36,WSW,240,1.0,1.0,97,0.00,BKN,,0.01,186.0,WeatherDisplay:10.37,2013-07-27 17:47:00,
2013-07-27 09:52:00,54.8,54.0,30.36,WNW,286,3.5,3.5,97,0.00,BKN,,0.01,169.0,WeatherDisplay:10.37,2013-07-27 17:52:00,
2013-07-27 09:57:00,54.9,53.8,30.36,WNW,286,3.5,3.5,96,0.00,BKN,,0.01,171.0,WeatherDisplay:10.37,2013-07-27 17:57:00,
2013-07-27 10:02:00,54.8,53.7,30.36,WSW,245,3.5,3.5,96,0.00,BKN,,0.01,185.0,WeatherDisplay:10.37,2013-07-27 18:02:00,
2013-07-27 10:07:00,54.8,53.7,30.36,WSW,251,2.3,0.0,96,0.00,BKN,,0.01,204.0,WeatherDisplay:10.37,2013-07-27 18:07:00,
2013-07-27 10:12:00,54.7,53.6,30.36,SSW,200,1.2,0.0,96,0.00,BKN,,0.01,185.0,WeatherDisplay:10.37,2013-07-27 18:12:00,
2013-07-27 10:17:00,54.9,53.8,30.36,SSW,198,1.2,1.2,96,0.00,BKN,,0.01,197.0,WeatherDisplay:10.37,2013-07-27 18:17:00,
2013-07-27 10:22:00,54.9,53.8,30.36,West,270,1.0,1.0,96,0.00,BKN,,0.01,223.0,WeatherDisplay:10.37,2013-07-27 18:22:00,
2013-07-27 10:27:00,54.8,53.7,30.36,SSW,205,1.2,0.0,96,0.00,BKN,,0.01,216.0,WeatherDisplay:10.37,2013-07-27 18:27:00,
2013-07-27 10:32:00,54.9,53.8,30.36,WSW,251,3.5,3.5,96,0.00,BKN,,0.01,221.0,WeatherDisplay:10.37,2013-07-27 18:32:00,
2013-07-27 10:37:00,54.9,53.5,30.36,SSW,206,2.3,2.3,95,0.00,BKN,,0.01,220.0,WeatherDisplay:10.37,2013-07-27 18:37:00,
2013-07-27 10:42:00,54.8,53.4,30.36,WSW,239,3.5,3.5,95,0.00,BKN,,0.01,255.0,WeatherDisplay:10.37,2013-07-27 18:42:00,
2013-07-27 10:47:00,54.7,53.3,30.36,SSW,204,1.2,1.2,95,0.00,BKN,,0.01,227.0,WeatherDisplay:10.37,2013-07-27 18:47:00,
2013-07-27 10:52:00,54.8,53.4,30.36,South,178,2.0,2.0,95,0.00,BKN,,0.01,258.0,WeatherDisplay:10.37,2013-07-27 18:52:00,
2013-07-27 10:57:00,55.0,53.6,30.36,SSW,208,2.3,2.3,95,0.00,BKN,,0.01,269.0,WeatherDisplay:10.37,2013-07-27 18:57:00,
2013-07-27 11:02:00,55.0,53.6,30.36,South,178,3.5,3.5,95,0.00,BKN,,0.01,267.0,WeatherDisplay:10.37,2013-07-27 19:02:00,
2013-07-27 11:07:00,55.1,54.0,30.37,South,178,1.2,0.0,96,0.00,BKN,,0.01,287.0,WeatherDisplay:10.37,2013-07-27 19:07:00,
2013-07-27 11:12:00,55.2,53.8,30.36,WSW,247,4.6,4.6,95,0.00,BKN,,0.01,278.0,WeatherDisplay:10.37,2013-07-27 19:12:00,
2013-07-27 11:17:00,55.2,53.8,30.37,SSW,195,2.0,2.0,95,0.00,BKN,,0.01,309.0,WeatherDisplay:10.37,2013-07-27 19:17:00,
2013-07-27 11:22:00,55.3,53.9,30.37,SW,216,1.2,1.2,95,0.00,BKN,,0.01,422.0,WeatherDisplay:10.37,2013-07-27 19:22:00,
2013-07-27 11:27:00,55.3,53.6,30.36,South,172,3.5,3.5,94,0.00,BKN,,0.01,369.0,WeatherDisplay:10.37,2013-07-27 19:27:00,
2013-07-27 11:32:00,55.5,54.1,30.37,SW,232,1.2,1.2,95,0.00,SCT,,0.01,403.0,WeatherDisplay:10.37,2013-07-27 19:32:00,
2013-07-27 11:37:00,55.6,53.9,30.37,WSW,244,1.2,1.2,94,0.00,SCT,,0.01,438.0,WeatherDisplay:10.37,2013-07-27 19:37:00,
2013-07-27 11:42:00,55.7,54.0,30.37,SSE,165,4.0,4.0,94,0.00,SCT,,0.01,425.0,WeatherDisplay:10.37,2013-07-27 19:42:00,
2013-07-27 11:47:00,55.9,53.9,30.37,South,173,3.5,3.5,93,0.00,SCT,,0.01,357.0,WeatherDisplay:10.37,2013-07-27 19:47:00,
2013-07-27 11:52:00,55.9,53.9,30.37,South,177,3.5,3.5,93,0.00,SCT,,0.01,399.0,WeatherDisplay:10.37,2013-07-27 19:52:00,
2013-07-27 11:57:00,55.8,53.8,30.37,SW,215,3.5,3.5,93,0.00,BKN,,0.01,396.0,WeatherDisplay:10.37,2013-07-27 19:57:00,
2013-07-27 12:02:00,55.8,53.8,30.37,WNW,300,4.6,4.6,93,0.00,OVC,,0.01,371.0,WeatherDisplay:10.37,2013-07-27 20:02:00,
2013-07-27 12:07:00,55.9,53.9,30.36,South,191,3.5,3.5,93,0.00,OVC,,0.01,388.0,WeatherDisplay:10.37,2013-07-27 20:07:00,
2013-07-27 12:12:00,55.8,53.8,30.37,SW,220,3.5,3.5,93,0.00,OVC,,0.01,385.0,WeatherDisplay:10.37,2013-07-27 20:12:00,
2013-07-27 12:17:00,55.6,53.6,30.36,South,182,3.5,3.5,93,0.00,OVC,,0.01,394.0,WeatherDisplay:10.37,2013-07-27 20:17:00,
2013-07-27 12:22:00,55.7,54.0,30.36,WNW,286,3.0,3.0,94,0.00,OVC,,0.01,432.0,WeatherDisplay:10.37,2013-07-27 20:22:00,
2013-07-27 12:28:00,56.0,54.3,30.36,SSE,148,2.3,2.3,94,0.00,OVC,,0.01,436.0,WeatherDisplay:10.37,2013-07-27 20:28:00,
2013-07-27 12:33:00,56.1,54.1,30.36,NW,317,2.3,2.3,93,0.00,OVC,,0.01,417.0,WeatherDisplay:10.37,2013-07-27 20:33:00,
2013-07-27 12:38:00,56.1,53.8,30.36,WSW,240,4.6,4.6,92,0.00,OVC,,0.01,399.0,WeatherDisplay:10.37,2013-07-27 20:38:00,
2013-07-27 12:43:00,55.9,53.9,30.36,SSW,196,4.6,4.6,93,0.00,OVC,,0.01,403.0,WeatherDisplay:10.37,2013-07-27 20:43:00,
2013-07-27 12:48:00,56.0,54.3,30.36,SW,214,4.6,4.6,94,0.00,OVC,,0.01,485.0,WeatherDisplay:10.37,2013-07-27 20:48:00,
2013-07-27 12:53:00,56.3,54.3,30.36,West,259,3.5,3.5,93,0.00,OVC,,0.01,480.0,WeatherDisplay:10.37,2013-07-27 20:53:00,
2013-07-27 12:58:00,56.2,53.9,30.36,WSW,257,3.5,3.5,92,0.00,OVC,,0.01,436.0,WeatherDisplay:10.37,2013-07-27 20:58:00,
2013-07-27 13:03:00,56.2,53.9,30.36,SSW,207,4.6,4.6,92,0.00,OVC,,0.01,434.0,WeatherDisplay:10.37,2013-07-27 21:03:00,
2013-07-27 13:08:00,56.2,54.2,30.36,NE,34,3.5,3.5,93,0.00,OVC,,0.01,436.0,WeatherDisplay:10.37,2013-07-27 21:08:00,
2013-07-27 13:13:00,56.2,54.2,30.36,SSW,203,3.5,3.5,93,0.00,OVC,,0.01,452.0,WeatherDisplay:10.37,2013-07-27 21:13:00,
2013-07-27 13:18:00,56.4,54.4,30.36,WSW,252,3.5,3.5,93,0.00,OVC,,0.01,452.0,WeatherDisplay:10.37,2013-07-27 21:18:00,
2013-07-27 13:23:00,56.6,54.3,30.36,SW,234,2.3,2.3,92,0.00,OVC,,0.01,496.0,WeatherDisplay:10.37,2013-07-27 21:23:00,
2013-07-27 13:28:00,56.5,54.2,30.36,SSW,194,5.8,5.8,92,0.00,OVC,,0.01,548.0,WeatherDisplay:10.37,2013-07-27 21:28:00,
2013-07-27 13:33:00,56.5,54.2,30.36,South,180,4.6,4.6,92,0.00,OVC,,0.01,490.0,WeatherDisplay:10.37,2013-07-27 21:33:00,
2013-07-27 13:38:00,56.6,54.6,30.36,SSE,166,3.5,3.5,93,0.00,OVC,,0.01,552.0,WeatherDisplay:10.37,2013-07-27 21:38:00,
2013-07-27 13:43:00,56.7,54.4,30.36,SSE,166,5.0,5.0,92,0.00,OVC,,0.01,550.0,WeatherDisplay:10.37,2013-07-27 21:43:00,
2013-07-27 13:48:00,56.6,54.3,30.36,SSE,152,4.6,4.6,92,0.00,OVC,,0.01,499.0,WeatherDisplay:10.37,2013-07-27 21:48:00,
2013-07-27 13:53:00,56.7,54.4,30.36,SSW,194,2.3,2.3,92,0.00,OVC,,0.01,443.0,WeatherDisplay:10.37,2013-07-27 21:53:00,
2013-07-27 13:58:00,56.8,54.2,30.36,SSW,209,1.2,1.2,91,0.00,OVC,,0.01,596.0,WeatherDisplay:10.37,2013-07-27 21:58:00,
2013-07-27 14:03:00,56.8,54.5,30.36,SW,221,3.5,3.5,92,0.00,SCT,,0.01,485.0,WeatherDisplay:10.37,2013-07-27 22:03:00,
2013-07-27 14:08:00,56.9,54.6,30.36,West,271,3.5,3.5,92,0.00,SCT,,0.01,522.0,WeatherDisplay:10.37,2013-07-27 22:08:00,
2013-07-27 14:13:00,57.2,54.9,30.36,South,191,3.5,3.5,92,0.00,SCT,,0.01,534.0,WeatherDisplay:10.37,2013-07-27 22:13:00,
2013-07-27 14:18:00,57.3,54.7,30.36,SW,221,1.2,1.2,91,0.00,SCT,,0.01,591.0,WeatherDisplay:10.37,2013-07-27 22:18:00,
2013-07-27 14:23:00,57.1,54.5,30.36,SSE,165,4.6,4.6,91,0.00,SCT,,0.01,647.0,WeatherDisplay:10.37,2013-07-27 22:23:00,
2013-07-27 14:28:00,57.1,54.5,30.36,SSW,206,3.5,3.5,91,0.00,SCT,,0.01,543.0,WeatherDisplay:10.37,2013-07-27 22:28:00,
2013-07-27 14:33:00,56.9,54.3,30.36,SSW,200,3.5,3.5,91,0.00,SCT,,0.01,547.0,WeatherDisplay:10.37,2013-07-27 22:33:00,
2013-07-27 14:38:00,56.9,54.3,30.36,WNW,302,5.8,5.8,91,0.00,SCT,,0.01,589.0,WeatherDisplay:10.37,2013-07-27 22:38:00,
2013-07-27 14:43:00,57.1,54.8,30.36,West,281,3.5,3.5,92,0.00,SCT,,0.01,475.0,WeatherDisplay:10.37,2013-07-27 22:43:00,
2013-07-27 14:48:00,57.3,55.0,30.36,NW,321,1.2,1.2,92,0.00,SCT,,0.01,541.0,WeatherDisplay:10.37,2013-07-27 22:48:00,
2013-07-27 14:53:00,57.3,54.7,30.36,NW,304,3.5,3.5,91,0.00,SCT,,0.01,591.0,WeatherDisplay:10.37,2013-07-27 22:53:00,
2013-07-27 14:58:00,57.0,54.4,30.36,NNW,332,3.5,3.5,91,0.00,SCT,,0.01,585.0,WeatherDisplay:10.37,2013-07-27 22:58:00,
2013-07-27 15:03:00,56.9,54.6,30.35,NW,306,7.0,7.0,92,0.00,CLR,,0.01,475.0,WeatherDisplay:10.37,2013-07-27 23:03:00,
2013-07-27 15:08:00,56.7,54.1,30.36,SW,214,1.2,1.2,91,0.00,CLR,,0.01,540.0,WeatherDisplay:10.37,2013-07-27 23:08:00,
2013-07-27 15:13:00,56.8,54.2,30.36,South,177,5.8,5.8,91,0.00,CLR,,0.01,557.0,WeatherDisplay:10.37,2013-07-27 23:13:00,
2013-07-27 15:18:00,56.8,54.5,30.36,South,175,3.5,3.5,92,0.00,CLR,,0.01,487.0,WeatherDisplay:10.37,2013-07-27 23:18:00,
2013-07-27 15:23:00,56.6,54.0,30.35,SSE,165,4.6,4.6,91,0.00,CLR,,0.01,584.0,WeatherDisplay:10.37,2013-07-27 23:23:00,
2013-07-27 15:28:00,56.4,54.1,30.35,NW,317,4.6,4.6,92,0.00,CLR,,0.01,547.0,WeatherDisplay:10.37,2013-07-27 23:28:00,
2013-07-27 15:33:00,56.6,54.3,30.35,SW,228,3.5,3.5,92,0.00,CLR,,0.01,571.0,WeatherDisplay:10.37,2013-07-27 23:33:00,
2013-07-27 15:38:00,56.8,54.5,30.35,NW,311,2.3,2.3,92,0.00,CLR,,0.01,501.0,WeatherDisplay:10.37,2013-07-27 23:38:00,
2013-07-27 15:43:00,56.9,54.3,30.35,West,265,3.5,3.5,91,0.00,CLR,,0.01,506.0,WeatherDisplay:10.37,2013-07-27 23:43:00,
2013-07-27 15:48:00,56.9,54.6,30.35,WSW,240,3.5,3.5,92,0.00,CLR,,0.01,578.0,WeatherDisplay:10.37,2013-07-27 23:48:00,
2013-07-27 15:53:00,57.0,54.4,30.35,SW,236,6.9,6.9,91,0.00,CLR,,0.01,552.0,WeatherDisplay:10.37,2013-07-27 23:53:00,
2013-07-27 15:58:00,57.0,54.4,30.35,NNW,348,2.3,2.3,91,0.00,CLR,,0.01,466.0,WeatherDisplay:10.37,2013-07-27 23:58:00,
2013-07-27 16:03:00,57.1,54.5,30.35,WSW,252,4.6,4.6,91,0.00,CLR,,0.01,471.0,WeatherDisplay:10.37,2013-07-28 00:03:00,
2013-07-27 16:08:00,57.1,54.5,30.35,WSW,238,3.5,3.5,91,0.00,CLR,,0.01,422.0,WeatherDisplay:10.37,2013-07-28 00:08:00,
2013-07-27 16:13:00,57.2,54.6,30.35,SSE,168,4.0,4.0,91,0.00,CLR,,0.01,480.0,WeatherDisplay:10.37,2013-07-28 00:13:00,
2013-07-27 16:18:00,57.3,55.0,30.35,West,265,3.5,3.5,92,0.00,CLR,,0.01,517.0,WeatherDisplay:10.37,2013-07-28 00:18:00,
2013-07-27 16:23:00,57.3,55.0,30.35,WNW,297,3.5,3.5,92,0.00,CLR,,0.01,461.0,WeatherDisplay:10.37,2013-07-28 00:23:00,
2013-07-27 16:28:00,57.2,54.6,30.35,NW,321,2.3,2.3,91,0.00,CLR,,0.01,422.0,WeatherDisplay:10.37,2013-07-28 00:28:00,
2013-07-27 16:33:00,57.3,55.0,30.35,South,187,2.3,2.3,92,0.00,CLR,,0.01,529.0,WeatherDisplay:10.37,2013-07-28 00:33:00,
2013-07-27 16:38:00,57.5,55.2,30.34,SE,129,2.3,2.3,92,0.00,CLR,,0.01,515.0,WeatherDisplay:10.37,2013-07-28 00:38:00,
2013-07-27 16:43:00,57.5,54.9,30.34,SSE,157,2.3,2.3,91,0.00,CLR,,0.01,396.0,WeatherDisplay:10.37,2013-07-28 00:43:00,
2013-07-27 16:48:00,57.5,54.9,30.34,NW,321,2.3,2.3,91,0.00,CLR,,0.01,355.0,WeatherDisplay:10.37,2013-07-28 00:48:00,
2013-07-27 16:53:00,57.3,54.7,30.34,SE,139,2.3,0.0,91,0.00,CLR,,0.01,403.0,WeatherDisplay:10.37,2013-07-28 00:53:00,
2013-07-27 16:58:00,57.3,54.7,30.34,West,268,3.0,3.0,91,0.00,CLR,,0.01,360.0,WeatherDisplay:10.37,2013-07-28 00:58:00,
2013-07-27 17:03:00,57.3,54.7,30.34,West,265,2.3,2.3,91,0.00,FEW,,0.01,338.0,WeatherDisplay:10.37,2013-07-28 01:03:00,
2013-07-27 17:08:00,57.3,54.7,30.34,NNW,333,4.6,4.6,91,0.00,FEW,,0.01,350.0,WeatherDisplay:10.37,2013-07-28 01:08:00,
2013-07-27 17:13:00,57.3,55.0,30.34,WSW,254,2.3,2.3,92,0.00,FEW,,0.01,381.0,WeatherDisplay:10.37,2013-07-28 01:13:00,
2013-07-27 17:18:00,57.3,54.7,30.34,WNW,288,3.5,3.5,91,0.00,FEW,,0.01,360.0,WeatherDisplay:10.37,2013-07-28 01:18:00,
2013-07-27 17:23:00,57.3,55.0,30.34,South,186,2.3,2.3,92,0.00,FEW,,0.01,343.0,WeatherDisplay:10.37,2013-07-28 01:23:00,
2013-07-27 17:28:00,57.1,54.5,30.34,SW,225,2.3,2.3,91,0.00,FEW,,0.01,320.0,WeatherDisplay:10.37,2013-07-28 01:28:00,
2013-07-27 17:33:00,57.1,54.8,30.34,NW,309,4.6,4.6,92,0.00,OVC,,0.01,313.0,WeatherDisplay:10.37,2013-07-28 01:33:00,
2013-07-27 17:38:00,57.1,54.8,30.34,WNW,288,4.6,4.6,92,0.00,OVC,,0.01,359.0,WeatherDisplay:10.37,2013-07-28 01:38:00,
2013-07-27 17:43:00,57.0,54.7,30.34,NW,323,3.0,3.0,92,0.00,OVC,,0.01,338.0,WeatherDisplay:10.37,2013-07-28 01:43:00,
2013-07-27 17:48:00,56.9,54.6,30.34,WNW,298,5.8,5.8,92,0.00,OVC,,0.01,329.0,WeatherDisplay:10.37,2013-07-28 01:48:00,
2013-07-27 17:53:00,56.8,54.5,30.34,WNW,293,2.3,2.3,92,0.00,OVC,,0.01,313.0,WeatherDisplay:10.37,2013-07-28 01:53:00,
2013-07-27 17:58:00,56.9,54.6,30.34,WNW,288,4.6,4.6,92,0.00,OVC,,0.01,301.0,WeatherDisplay:10.37,2013-07-28 01:58:00,
2013-07-27 18:03:00,57.0,55.0,30.33,SSW,206,4.6,4.6,93,0.00,OVC,,0.01,308.0,WeatherDisplay:10.37,2013-07-28 02:03:00,
2013-07-27 18:08:00,57.0,54.7,30.33,WSW,257,3.5,3.5,92,0.00,OVC,,0.01,299.0,WeatherDisplay:10.37,2013-07-28 02:08:00,
2013-07-27 18:13:00,56.9,54.6,30.33,SSW,192,3.5,3.5,92,0.00,OVC,,0.01,294.0,WeatherDisplay:10.37,2013-07-28 02:13:00,
2013-07-27 18:18:00,56.8,54.5,30.33,SSW,202,1.2,1.3,92,0.00,BKN,,0.01,322.0,WeatherDisplay:10.37,2013-07-28 02:18:00,
2013-07-27 18:23:00,56.6,54.3,30.33,South,169,2.3,2.3,92,0.00,BKN,,0.01,297.0,WeatherDisplay:10.37,2013-07-28 02:23:00,
2013-07-27 18:28:00,56.4,54.1,30.33,SSW,205,3.5,3.5,92,0.00,BKN,,0.01,309.0,WeatherDisplay:10.37,2013-07-28 02:28:00,
2013-07-27 18:33:00,56.3,54.3,30.33,NW,322,4.0,4.0,93,0.00,BKN,,0.01,272.0,WeatherDisplay:10.37,2013-07-28 02:33:00,
2013-07-27 18:38:00,56.4,54.7,30.33,WNW,299,1.2,1.2,94,0.00,BKN,,0.01,304.0,WeatherDisplay:10.37,2013-07-28 02:38:00,
2013-07-27 18:43:00,56.4,54.4,30.32,SSW,204,4.6,4.6,93,0.00,BKN,,0.01,283.0,WeatherDisplay:10.37,2013-07-28 02:43:00,
2013-07-27 18:48:00,56.4,54.4,30.33,SW,234,2.3,2.3,93,0.00,BKN,,0.01,281.0,WeatherDisplay:10.37,2013-07-28 02:48:00,
2013-07-27 18:53:00,56.5,54.5,30.32,WNW,293,4.0,4.0,93,0.00,BKN,,0.01,239.0,WeatherDisplay:10.37,2013-07-28 02:53:00,
2013-07-27 18:58:00,56.4,54.4,30.32,NW,313,3.5,3.5,93,0.00,BKN,,0.01,234.0,WeatherDisplay:10.37,2013-07-28 02:58:00,
2013-07-27 19:03:00,56.4,54.4,30.33,SE,144,4.6,4.6,93,0.00,BKN,,0.01,230.0,WeatherDisplay:10.37,2013-07-28 03:03:00,
2013-07-27 19:08:00,56.2,53.9,30.33,WSW,255,3.5,3.5,92,0.00,BKN,,0.01,227.0,WeatherDisplay:10.37,2013-07-28 03:08:00,
2013-07-27 19:13:00,56.2,53.9,30.32,SW,217,3.5,3.5,92,0.00,BKN,,0.01,234.0,WeatherDisplay:10.37,2013-07-28 03:13:00,
2013-07-27 19:18:00,56.1,53.8,30.32,SSW,204,3.5,3.5,92,0.00,BKN,,0.01,223.0,WeatherDisplay:10.37,2013-07-28 03:18:00,
2013-07-27 19:23:00,55.9,53.6,30.32,SW,234,1.2,1.2,92,0.00,BKN,,0.01,207.0,WeatherDisplay:10.37,2013-07-28 03:23:00,
2013-07-27 19:28:00,55.9,53.9,30.32,West,280,3.5,3.5,93,0.00,BKN,,0.01,171.0,WeatherDisplay:10.37,2013-07-28 03:28:00,
2013-07-27 19:33:00,55.8,53.5,30.32,West,265,3.5,3.5,92,0.00,BKN,,0.01,192.0,WeatherDisplay:10.37,2013-07-28 03:33:00,
2013-07-27 19:38:00,55.7,53.7,30.32,NW,317,3.5,3.5,93,0.00,BKN,,0.01,206.0,WeatherDisplay:10.37,2013-07-28 03:38:00,
2013-07-27 19:43:00,55.5,53.5,30.32,NW,313,1.2,1.2,93,0.00,BKN,,0.01,183.0,WeatherDisplay:10.37,2013-07-28 03:43:00,
2013-07-27 19:48:00,55.5,53.5,30.32,SW,235,2.0,2.0,93,0.00,BKN,,0.01,202.0,WeatherDisplay:10.37,2013-07-28 03:48:00,
2013-07-27 19:53:00,55.5,53.5,30.32,SSE,167,3.5,0.0,93,0.00,BKN,,0.01,165.0,WeatherDisplay:10.37,2013-07-28 03:53:00,
2013-07-27 19:58:00,55.5,53.8,30.32,SW,228,1.2,1.2,94,0.00,BKN,,0.01,130.0,WeatherDisplay:10.37,2013-07-28 03:58:00,
2013-07-27 20:01:00,55.5,53.5,30.32,WNW,283,2.3,2.3,93,0.00,OVC,,0.01,111.0,WeatherDisplay:10.37,2013-07-28 04:01:00,
2013-07-27 20:02:00,55.5,53.5,30.32,SSE,157,2.3,2.3,93,0.00,OVC,,0.01,123.0,WeatherDisplay:10.37,2013-07-28 04:02:00,
2013-07-27 20:07:00,55.4,53.4,30.32,SW,232,3.5,3.5,93,0.00,OVC,,0.01,109.0,WeatherDisplay:10.37,2013-07-28 04:07:00,
2013-07-27 20:12:00,55.2,53.2,30.32,SSW,192,1.2,1.2,93,0.00,OVC,,0.01,121.0,WeatherDisplay:10.37,2013-07-28 04:12:00,
2013-07-27 20:17:00,55.1,53.4,30.31,WNW,289,3.5,3.5,94,0.00,OVC,,0.01,113.0,WeatherDisplay:10.37,2013-07-28 04:17:00,
2013-07-27 20:22:00,55.0,53.3,30.31,SSW,208,3.5,3.5,94,0.00,OVC,,0.01,113.0,WeatherDisplay:10.37,2013-07-28 04:22:00,
2013-07-27 20:27:00,54.9,53.2,30.31,SSW,197,2.3,2.3,94,0.00,OVC,,0.01,113.0,WeatherDisplay:10.37,2013-07-28 04:27:00,
2013-07-27 20:32:00,54.7,53.0,30.31,WSW,238,3.5,3.5,94,0.00,OVC,,0.01,81.0,WeatherDisplay:10.37,2013-07-28 04:32:00,
2013-07-27 20:37:00,54.4,52.7,30.31,WNW,298,2.3,2.3,94,0.00,OVC,,0.01,86.0,WeatherDisplay:10.37,2013-07-28 04:37:00,
2013-07-27 20:42:00,54.3,52.6,30.31,SW,225,1.2,1.2,94,0.00,OVC,,0.01,83.0,WeatherDisplay:10.37,2013-07-28 04:42:00,
2013-07-27 20:47:00,54.3,52.9,30.31,South,186,2.3,2.3,95,0.00,OVC,,0.01,77.0,WeatherDisplay:10.37,2013-07-28 04:47:00,
2013-07-27 20:52:00,54.3,52.9,30.31,SW,223,3.5,3.5,95,0.00,OVC,,0.01,74.0,WeatherDisplay:10.37,2013-07-28 04:52:00,
2013-07-27 20:57:00,54.2,52.5,30.31,SW,227,0.0,0.0,94,0.00,OVC,,0.01,79.0,WeatherDisplay:10.37,2013-07-28 04:57:00,
2013-07-27 21:02:00,54.0,52.3,30.31,WSW,250,3.5,3.5,94,0.00,BKN,,0.01,60.0,WeatherDisplay:10.37,2013-07-28 05:02:00,
2013-07-27 21:07:00,53.9,52.2,30.31,South,184,3.5,3.5,94,0.00,BKN,,0.01,65.0,WeatherDisplay:10.37,2013-07-28 05:07:00,
2013-07-27 21:12:00,53.8,52.4,30.31,WSW,240,4.6,4.6,95,0.00,BKN,,0.01,58.0,WeatherDisplay:10.37,2013-07-28 05:12:00,
2013-07-27 21:17:00,53.7,52.3,30.31,South,183,1.2,1.2,95,0.00,BKN,,0.01,47.0,WeatherDisplay:10.37,2013-07-28 05:17:00,
2013-07-27 21:22:00,53.6,52.2,30.31,SSW,194,3.0,3.0,95,0.00,BKN,,0.01,42.0,WeatherDisplay:10.37,2013-07-28 05:22:00,
2013-07-27 21:27:00,53.6,52.2,30.31,South,170,2.3,2.3,95,0.00,BKN,,0.01,46.0,WeatherDisplay:10.37,2013-07-28 05:27:00,
2013-07-27 21:32:00,53.5,52.1,30.31,West,278,2.3,2.3,95,0.00,BKN,,0.01,35.0,WeatherDisplay:10.37,2013-07-28 05:32:00,
2013-07-27 21:37:00,53.5,52.1,30.31,SSW,194,0.0,0.0,95,0.00,BKN,,0.01,35.0,WeatherDisplay:10.37,2013-07-28 05:37:00,
2013-07-27 21:42:00,53.5,52.4,30.31,WSW,248,3.5,3.5,96,0.00,BKN,,0.01,37.0,WeatherDisplay:10.37,2013-07-28 05:42:00,
2013-07-27 21:47:00,53.5,52.4,30.31,SSW,210,2.3,2.3,96,0.00,BKN,,0.01,28.0,WeatherDisplay:10.37,2013-07-28 05:47:00,
2013-07-27 21:52:00,53.5,52.4,30.31,SSE,162,0.0,0.0,96,0.00,BKN,,0.01,28.0,WeatherDisplay:10.37,2013-07-28 05:52:00,
2013-07-27 21:57:00,53.4,52.3,30.31,SSW,207,0.0,0.0,96,0.00,BKN,,0.01,23.0,WeatherDisplay:10.37,2013-07-28 05:57:00,
2013-07-27 22:02:00,53.3,52.2,30.31,SSW,207,1.2,1.2,96,0.00,BKN,,0.01,18.0,WeatherDisplay:10.37,2013-07-28 06:02:00,
2013-07-27 22:07:00,53.3,52.2,30.31,SE,144,2.0,2.0,96,0.00,BKN,,0.01,16.0,WeatherDisplay:10.37,2013-07-28 06:07:00,
2013-07-27 22:12:00,53.3,52.2,30.31,South,179,2.3,2.3,96,0.00,BKN,,0.01,12.0,WeatherDisplay:10.37,2013-07-28 06:12:00,
2013-07-27 22:17:00,53.3,52.2,30.31,SW,231,1.2,0.0,96,0.00,BKN,,0.01,12.0,WeatherDisplay:10.37,2013-07-28 06:17:00,
2013-07-27 22:22:00,53.2,52.1,30.31,South,173,1.2,1.2,96,0.00,BKN,,0.01,7.0,WeatherDisplay:10.37,2013-07-28 06:22:00,
2013-07-27 22:27:00,53.1,52.0,30.31,South,169,1.2,1.2,96,0.00,BKN,,0.01,7.0,WeatherDisplay:10.37,2013-07-28 06:27:00,
2013-07-27 22:32:00,53.1,52.0,30.31,SE,140,2.3,2.3,96,0.00,BKN,,0.01,5.0,WeatherDisplay:10.37,2013-07-28 06:32:00,
2013-07-27 22:37:00,53.0,51.9,30.31,SSW,195,1.2,1.2,96,0.00,BKN,,0.01,5.0,WeatherDisplay:10.37,2013-07-28 06:37:00,
2013-07-27 22:42:00,52.9,51.8,30.31,SW,223,0.0,0.0,96,0.00,BKN,,0.01,5.0,WeatherDisplay:10.37,2013-07-28 06:42:00,
2013-07-27 22:47:00,53.0,51.9,30.31,SW,217,1.2,1.2,96,0.00,OVC,,0.01,0.0,WeatherDisplay:10.37,2013-07-28 06:47:00,
2013-07-27 22:52:00,53.0,51.9,30.31,West,269,3.5,3.5,96,0.00,OVC,,0.01,0.0,WeatherDisplay:10.37,2013-07-28 06:52:00,
2013-07-27 22:57:00,53.0,52.2,30.31,West,271,1.2,1.2,97,0.00,OVC,,0.01,0.0,WeatherDisplay:10.37,2013-07-28 06:57:00,
2013-07-27 23:02:00,53.1,52.3,30.31,West,270,2.3,2.3,97,0.00,,,0.01,0.0,WeatherDisplay:10.37,2013-07-28 07:02:00,
2013-07-27 23:07:00,53.1,52.3,30.31,West,270,0.0,0.0,97,0.00,,,0.01,0.0,WeatherDisplay:10.37,2013-07-28 07:07:00,
2013-07-27 23:12:00,53.1,52.3,30.31,SSE,161,0.0,0.0,97,0.00,,,0.01,0.0,WeatherDisplay:10.37,2013-07-28 07:12:00,
2013-07-27 23:17:00,53.1,52.3,30.31,SSW,193,0.0,0.2,97,0.00,,,0.01,0.0,WeatherDisplay:10.37,2013-07-28 07:17:00,
2013-07-27 23:22:00,53.0,51.9,30.31,SSW,193,0.0,0.0,96,0.00,,,0.01,0.0,WeatherDisplay:10.37,2013-07-28 07:22:00,
2013-07-27 23:27:00,53.0,51.9,30.32,SSW,195,0.0,0.0,96,0.00,,,0.01,0.0,WeatherDisplay:10.37,2013-07-28 07:27:00,
2013-07-27 23:32:00,52.9,51.8,30.31,SSW,195,1.0,0.0,96,0.00,SCT,,0.01,0.0,WeatherDisplay:10.37,2013-07-28 07:32:00,
2013-07-27 23:37:00,52.8,51.7,30.31,SSW,195,1.2,0.0,96,0.00,SCT,,0.01,0.0,WeatherDisplay:10.37,2013-07-28 07:37:00,
2013-07-27 23:42:00,52.6,51.5,30.31,SSW,195,1.2,0.0,96,0.00,SCT,,0.01,0.0,WeatherDisplay:10.37,2013-07-28 07:42:00,
2013-07-27 23:47:00,52.5,51.4,30.31,SSE,167,1.0,0.0,96,0.00,SCT,,0.01,0.0,WeatherDisplay:10.37,2013-07-28 07:47:00,
2013-07-27 23:52:00,52.4,51.3,30.31,SSE,167,1.2,1.2,96,0.00,SCT,,0.01,0.0,WeatherDisplay:10.37,2013-07-28 07:52:00,
2013-07-27 23:57:00,52.3,51.2,30.31,SSE,167,0.0,0.0,96,0.00,SCT,,0.01,0.0,WeatherDisplay:10.37,2013-07-28 07:57:00,